Chocowinity, North Carolina
Current Conditions -  °F | °C
As of 6:55 PM on Friday 31 Oct 2014 (Local Time) from KOCW Reporting Station
Clear Clear  
Wind Chill: 52°   Ceiling: Unl
Heat Index: 52°   Visibility: 10mi
Dew Point: 42°   Wind: 3mph
Humidity: 70%   Direction: 10°N
Pressure: 29.8"   Gusts: NA
Location:  35.51°N, 77.1°W
Report Text: KOCW 312255Z AUTO 01003KT 10SM CLR 11/06 A2980 RMK AO2 T01100058
Loading
Personal Weather Stations






























Interactive Weather Map
Tropical Storm Tracking
New forecast layout! Learn more

10-Day Weather Forecast

Advertisements
Track Severe Weather on mobile